Time;durP1;ratioP1;P1;durP2;ratioP2;P2;SDS_P1;SDS_P2;PMS_P1;PMS_P2;Temp;Humidity;BMP_temperature;BMP_pressure;BME280_temperature;BME280_humidity;BME280_pressure;Samples;Min_cycle;Max_cycle;Signal;HPM_P1;HPM_P2
2021/08/13 00:02:04;;;;;;;5.9;4.9;;;;;;;20.28;80.84961;943.1213;;;;
2021/08/13 00:04:31;;;;;;;6.2;5;;;;;;;20.3;80.6875;943.2125;;;;
2021/08/13 00:06:56;;;;;;;6.9;5.1;;;;;;;20.37;80.53809;943.2271;;;;
2021/08/13 00:09:22;;;;;;;6.1;5.1;;;;;;;20.49;80.40918;943.2065;;;;
2021/08/13 00:11:46;;;;;;;5.8;4.7;;;;;;;20.51;80.07324;943.2289;;;;
2021/08/13 00:14:14;;;;;;;5.4;4.9;;;;;;;20.44;80.30566;943.2166;;;;
2021/08/13 00:16:39;;;;;;;5.7;4.9;;;;;;;20.33;80.37891;943.2272;;;;
2021/08/13 00:19:04;;;;;;;5;4.5;;;;;;;20.17;80.70117;943.2275;;;;
2021/08/13 00:21:29;;;;;;;6.8;5.2;;;;;;;20.2;80.7998;943.223;;;;
2021/08/13 00:23:54;;;;;;;6.2;4.8;;;;;;;20.16;80.9082;943.252;;;;
2021/08/13 00:26:20;;;;;;;6.1;5.2;;;;;;;20.11;81.26172;943.1672;;;;
2021/08/13 00:28:45;;;;;;;5.5;4.9;;;;;;;20.12;81.20313;943.1802;;;;
2021/08/13 00:31:12;;;;;;;6.1;5.4;;;;;;;20.21;80.8252;943.26;;;;
2021/08/13 00:33:37;;;;;;;6.8;4.8;;;;;;;20.24;80.49121;943.212;;;;
2021/08/13 00:36:02;;;;;;;8.2;5;;;;;;;20.12;80.64453;943.1105;;;;
2021/08/13 00:39:10;;;;;;;6.2;4.7;;;;;;;20.1;80.65332;943.1869;;;;
2021/08/13 00:41:35;;;;;;;5.8;4.5;;;;;;;20.29;79.26367;943.1794;;;;
2021/08/13 00:44:00;;;;;;;7.5;5.1;;;;;;;20.36;78.13086;943.1838;;;;
2021/08/13 00:46:25;;;;;;;5.3;4.6;;;;;;;20.27;78.62793;943.1484;;;;
2021/08/13 00:48:50;;;;;;;5.1;4.6;;;;;;;20.28;78.99219;943.1611;;;;
2021/08/13 00:51:16;;;;;;;7.4;4.9;;;;;;;20.09;79.75098;943.1613;;;;
2021/08/13 00:53:41;;;;;;;5.9;4.7;;;;;;;20.07;79.85352;943.1075;;;;
2021/08/13 00:56:09;;;;;;;5.2;4.7;;;;;;;20.07;79.46777;943.1641;;;;
2021/08/13 00:59:07;;;;;;;7;4.8;;;;;;;20.06;79.99121;943.2023;;;;
2021/08/13 01:01:14;;;;;;;7.5;5.1;;;;;;;20.08;79.28418;943.2431;;;;
2021/08/13 01:03:39;;;;;;;6.2;4.8;;;;;;;20.16;79.19238;943.2972;;;;
2021/08/13 01:06:05;;;;;;;8.7;5.1;;;;;;;20.23;78.52832;943.3812;;;;
2021/08/13 01:08:30;;;;;;;6.6;4.6;;;;;;;20.28;77.75391;943.3738;;;;
2021/08/13 01:10:58;;;;;;;5.1;4.6;;;;;;;20.25;77.7959;943.4099;;;;
2021/08/13 01:13:24;;;;;;;6.5;5;;;;;;;20.13;77.93848;943.4645;;;;
2021/08/13 01:15:53;;;;;;;5.3;4.6;;;;;;;20.06;78.46289;943.4174;;;;
2021/08/13 01:18:20;;;;;;;6.2;4.7;;;;;;;20.07;78.72168;943.4745;;;;
2021/08/13 01:20:45;;;;;;;5.6;5;;;;;;;20.08;79.00488;943.501;;;;
2021/08/13 01:23:10;;;;;;;5.4;4.4;;;;;;;19.93;79.96875;943.5787;;;;
2021/08/13 01:25:35;;;;;;;7;5.5;;;;;;;19.9;80.39355;943.5955;;;;
2021/08/13 01:28:02;;;;;;;6.5;4.6;;;;;;;20.02;79.80859;943.5617;;;;
2021/08/13 01:30:27;;;;;;;6.5;5.2;;;;;;;20;80.0166;943.558;;;;
2021/08/13 01:32:54;;;;;;;7.1;5;;;;;;;20.02;80.75488;943.5539;;;;
2021/08/13 01:35:19;;;;;;;5.6;4.6;;;;;;;20.13;80.08594;943.5033;;;;
2021/08/13 01:37:44;;;;;;;5.4;4.9;;;;;;;20.19;79.62891;943.4973;;;;
2021/08/13 01:40:12;;;;;;;7.2;4.9;;;;;;;20.19;79.76953;943.5014;;;;
2021/08/13 01:42:38;;;;;;;7;4.9;;;;;;;20.21;79.66895;943.6086;;;;
2021/08/13 01:45:03;;;;;;;6.5;4.7;;;;;;;20.16;79.9043;943.6507;;;;
2021/08/13 01:47:28;;;;;;;5.5;4.5;;;;;;;20.08;80.16992;943.5933;;;;
2021/08/13 01:49:53;;;;;;;5.9;4.3;;;;;;;20.14;79.88965;943.5994;;;;
2021/08/13 01:52:20;;;;;;;5.5;4.7;;;;;;;20.26;78.88379;943.6484;;;;
2021/08/13 01:54:45;;;;;;;5.9;4.8;;;;;;;20.26;79.03711;943.7033;;;;
2021/08/13 01:57:10;;;;;;;6.2;4.5;;;;;;;20.26;79.30371;943.7285;;;;
2021/08/13 01:59:35;;;;;;;6.1;5;;;;;;;20.22;78.91016;943.7297;;;;
2021/08/13 02:02:00;;;;;;;7.5;4.9;;;;;;;20.16;79.39063;943.7413;;;;
2021/08/13 02:04:26;;;;;;;4.7;4;;;;;;;20.19;78.69531;943.7367;;;;
2021/08/13 02:06:51;;;;;;;5.4;4.9;;;;;;;20.18;77.50488;943.7321;;;;
2021/08/13 02:09:17;;;;;;;6.1;4.2;;;;;;;20.36;77.36133;943.6707;;;;
2021/08/13 02:11:42;;;;;;;6.7;4.9;;;;;;;20.39;77.99512;943.6661;;;;
2021/08/13 02:14:10;;;;;;;6.1;4.4;;;;;;;20.35;76.7998;943.6716;;;;
2021/08/13 02:16:35;;;;;;;6.8;4.8;;;;;;;20.44;77.47949;943.7036;;;;
2021/08/13 02:19:03;;;;;;;5.3;4.3;;;;;;;20.44;78.0752;943.7336;;;;
2021/08/13 02:21:28;;;;;;;5.5;4.6;;;;;;;20.42;77.65137;943.758;;;;
2021/08/13 02:23:56;;;;;;;6.5;4.5;;;;;;;20.44;77.6543;943.6955;;;;
2021/08/13 02:26:22;;;;;;;6.9;4.4;;;;;;;20.4;77.95117;943.7264;;;;
2021/08/13 02:28:49;;;;;;;5.1;4.3;;;;;;;20.43;78.5166;943.7734;;;;
2021/08/13 02:31:14;;;;;;;5;4.5;;;;;;;20.39;77.83301;943.8075;;;;
2021/08/13 02:33:41;;;;;;;5.3;4.4;;;;;;;20.27;78.54688;943.7679;;;;
2021/08/13 02:36:42;;;;;;;6.8;4.7;;;;;;;20.2;78.8252;943.7511;;;;
2021/08/13 02:39:07;;;;;;;5.4;4.7;;;;;;;20.18;79.0459;943.7336;;;;
2021/08/13 02:41:33;;;;;;;6.2;5;;;;;;;20.24;78.99707;943.7425;;;;
2021/08/13 02:43:58;;;;;;;6.9;5.5;;;;;;;20.2;78.91895;943.7115;;;;
2021/08/13 02:46:24;;;;;;;6.9;5.2;;;;;;;20.12;79.10449;943.7266;;;;
2021/08/13 02:48:49;;;;;;;7.8;5.4;;;;;;;20.13;79.40918;943.7111;;;;
2021/08/13 02:51:14;;;;;;;10.3;5.7;;;;;;;20.13;79.52637;943.7192;;;;
2021/08/13 02:53:41;;;;;;;8.7;6.3;;;;;;;20.15;78.81738;943.7011;;;;
2021/08/13 02:56:06;;;;;;;8.7;5.8;;;;;;;20.19;78.9873;943.7011;;;;
2021/08/13 02:58:31;;;;;;;9.4;6.1;;;;;;;20.23;78.52832;943.653;;;;
2021/08/13 03:00:57;;;;;;;6;5;;;;;;;20.21;78.51367;943.7241;;;;
2021/08/13 03:03:22;;;;;;;7.7;5.3;;;;;;;20.21;78.38477;943.6635;;;;
2021/08/13 03:05:52;;;;;;;8.4;5.4;;;;;;;20.18;79.03223;943.6456;;;;
2021/08/13 03:08:17;;;;;;;9.6;5.1;;;;;;;20.18;79.06934;943.673;;;;
2021/08/13 03:10:42;;;;;;;7.6;5.8;;;;;;;20.16;79.42578;943.6992;;;;
2021/08/13 03:13:07;;;;;;;10.5;5.7;;;;;;;20.2;78.94336;943.7211;;;;
2021/08/13 03:15:34;;;;;;;8.3;5.5;;;;;;;20.18;78.96387;943.7094;;;;
2021/08/13 03:18:00;;;;;;;8;5.7;;;;;;;20.19;79.25781;943.7269;;;;
2021/08/13 03:20:25;;;;;;;7.3;5.2;;;;;;;20.25;79.08008;943.709;;;;
2021/08/13 03:22:51;;;;;;;9.3;5.5;;;;;;;20.27;78.53516;943.6845;;;;
2021/08/13 03:25:16;;;;;;;9.3;6;;;;;;;19.96;79.64648;943.6525;;;;
2021/08/13 03:27:43;;;;;;;7.8;4.8;;;;;;;19.71;80.68555;943.697;;;;
2021/08/13 03:30:08;;;;;;;11.4;5.2;;;;;;;19.71;80.75586;943.6283;;;;
2021/08/13 03:32:33;;;;;;;7.4;5.5;;;;;;;19.79;80.40918;943.6778;;;;
2021/08/13 03:34:58;;;;;;;8.5;5.7;;;;;;;19.71;80.5791;943.6688;;;;
2021/08/13 03:37:25;;;;;;;7.3;5.3;;;;;;;19.61;81.36719;943.688;;;;
2021/08/13 03:39:50;;;;;;;9;5.8;;;;;;;19.51;81.87305;943.7288;;;;
2021/08/13 03:42:17;;;;;;;7.1;5.3;;;;;;;19.53;81.48047;943.7035;;;;
2021/08/13 03:44:56;;;;;;;8.1;5.5;;;;;;;19.43;81.71875;943.752;;;;
2021/08/13 03:47:21;;;;;;;7.8;5.4;;;;;;;19.44;81.51172;943.7517;;;;
2021/08/13 03:49:46;;;;;;;6.8;5.5;;;;;;;19.39;81.87598;943.829;;;;
2021/08/13 03:52:12;;;;;;;7.7;5.4;;;;;;;19.53;81.38867;943.7244;;;;
2021/08/13 03:54:37;;;;;;;9.3;5.5;;;;;;;19.67;80.94531;943.8117;;;;
2021/08/13 03:57:02;;;;;;;9.8;5.5;;;;;;;19.65;80.90918;943.7175;;;;
2021/08/13 03:59:39;;;;;;;6.6;4.8;;;;;;;19.64;81.12891;943.8494;;;;
2021/08/13 04:02:34;;;;;;;5.9;4.6;;;;;;;19.59;80.82715;943.9177;;;;
2021/08/13 04:04:59;;;;;;;8.4;4.9;;;;;;;19.64;80.55566;943.923;;;;
2021/08/13 04:07:26;;;;;;;6.6;4.8;;;;;;;19.59;80.61719;943.9849;;;;
2021/08/13 04:09:51;;;;;;;6.6;4.8;;;;;;;19.53;80.72266;944;;;;
2021/08/13 04:12:20;;;;;;;10.4;5.3;;;;;;;19.5;80.85742;943.9278;;;;
2021/08/13 04:14:45;;;;;;;10.9;4.9;;;;;;;19.46;80.97754;943.9219;;;;
2021/08/13 04:17:11;;;;;;;5.4;4.6;;;;;;;19.27;81.81836;943.9367;;;;
2021/08/13 04:19:36;;;;;;;6;4.9;;;;;;;19.27;82.07422;943.9238;;;;
2021/08/13 04:22:02;;;;;;;6;4.6;;;;;;;19.37;81.39355;943.9763;;;;
2021/08/13 04:24:27;;;;;;;7.5;4.9;;;;;;;19.49;80.9375;943.9934;;;;
2021/08/13 04:26:55;;;;;;;6.7;5.2;;;;;;;19.49;80.86719;944.02;;;;
2021/08/13 04:29:20;;;;;;;7.1;5.2;;;;;;;19.54;80.13281;944.0161;;;;
2021/08/13 04:31:47;;;;;;;8.7;4.8;;;;;;;19.64;79.78809;943.8897;;;;
2021/08/13 04:34:13;;;;;;;6.2;4.9;;;;;;;19.67;79.50293;944.0192;;;;
2021/08/13 04:36:38;;;;;;;6.4;4.7;;;;;;;19.62;79.9248;944.0234;;;;
2021/08/13 04:39:04;;;;;;;6.7;4.7;;;;;;;19.56;80.08789;944.0927;;;;
2021/08/13 04:41:29;;;;;;;6.3;5.1;;;;;;;19.49;80.54102;944.1921;;;;
2021/08/13 04:43:54;;;;;;;6.6;5.1;;;;;;;19.5;80.91602;944.2267;;;;
2021/08/13 04:46:51;;;;;;;5.8;5;;;;;;;19.42;81.51855;944.3116;;;;
2021/08/13 04:49:18;;;;;;;5.8;4.8;;;;;;;19.47;81.3291;944.2628;;;;
2021/08/13 04:51:43;;;;;;;4.9;4.4;;;;;;;19.46;81.52539;944.2062;;;;
2021/08/13 04:54:10;;;;;;;6.2;4.8;;;;;;;19.32;82.07129;944.2736;;;;
2021/08/13 04:56:35;;;;;;;5.9;4.8;;;;;;;19.23;82.15918;944.2255;;;;
2021/08/13 04:59:00;;;;;;;6.8;4.8;;;;;;;19.25;81.67285;944.2285;;;;
2021/08/13 05:01:25;;;;;;;5.4;4.8;;;;;;;19.24;81.54492;944.2939;;;;
2021/08/13 05:03:51;;;;;;;6;4.6;;;;;;;19.59;80.34961;944.3063;;;;
2021/08/13 05:06:16;;;;;;;6.3;4.9;;;;;;;19.85;78.99609;944.327;;;;
2021/08/13 05:08:41;;;;;;;6.1;4.2;;;;;;;20.04;77.59668;944.3401;;;;
2021/08/13 05:11:07;;;;;;;5.2;4.7;;;;;;;20.22;78.0127;944.3552;;;;
2021/08/13 05:13:32;;;;;;;7.1;4.6;;;;;;;20.48;76.51758;944.312;;;;
2021/08/13 05:16:03;;;;;;;5.7;4.3;;;;;;;20.47;77.29688;944.305;;;;
2021/08/13 05:18:29;;;;;;;6.3;4.9;;;;;;;20.47;77.77637;944.3834;;;;
2021/08/13 05:20:59;;;;;;;6.2;4.5;;;;;;;20.62;76.02734;944.3822;;;;
2021/08/13 05:23:24;;;;;;;6.8;4.8;;;;;;;20.62;76.28418;944.3588;;;;
2021/08/13 05:25:52;;;;;;;5.5;4.6;;;;;;;20.61;76.51563;944.3848;;;;
2021/08/13 05:28:17;;;;;;;5.1;4.3;;;;;;;20.65;76.65039;944.416;;;;
2021/08/13 05:30:45;;;;;;;7;4.7;;;;;;;20.69;76.38965;944.4977;;;;
2021/08/13 05:33:10;;;;;;;6.2;4.3;;;;;;;20.77;76.75488;944.5399;;;;
2021/08/13 05:35:39;;;;;;;6.3;4.6;;;;;;;21.07;76.52539;944.5092;;;;
2021/08/13 05:38:03;;;;;;;6.3;4.1;;;;;;;21.42;73.22656;944.511;;;;
2021/08/13 05:40:29;;;;;;;7;4.4;;;;;;;21.66;72.25879;944.5119;;;;
2021/08/13 05:42:56;;;;;;;5.7;3.9;;;;;;;22.56;68.60352;944.4874;;;;
2021/08/13 05:45:19;;;;;;;4.6;3.9;;;;;;;23.35;65.11523;944.4372;;;;
2021/08/13 05:47:46;;;;;;;5.1;3.9;;;;;;;24.17;62.89258;944.4655;;;;
2021/08/13 05:50:15;;;;;;;5.1;3.6;;;;;;;25.21;58.58789;944.4584;;;;
2021/08/13 05:52:37;;;;;;;5;3.7;;;;;;;25.97;57.10254;944.4612;;;;
2021/08/13 05:55:02;;;;;;;9;4.3;;;;;;;26.64;54.89063;944.4881;;;;
2021/08/13 05:57:27;;;;;;;5.9;3.7;;;;;;;25.76;55.29297;944.4367;;;;
2021/08/13 05:59:52;;;;;;;7;4.1;;;;;;;24.71;58.40527;944.4562;;;;
2021/08/13 06:02:19;;;;;;;6.1;4.1;;;;;;;24.04;60.4707;944.5302;;;;
2021/08/13 06:04:44;;;;;;;4.6;3.9;;;;;;;23.66;62.25488;944.5295;;;;
2021/08/13 06:07:09;;;;;;;5.9;4.1;;;;;;;23.2;64.57715;944.5542;;;;
2021/08/13 06:09:35;;;;;;;6.5;4.1;;;;;;;22.83;65.61621;944.6068;;;;
2021/08/13 06:12:00;;;;;;;4.4;4;;;;;;;22.61;67.21387;944.6833;;;;
2021/08/13 06:14:26;;;;;;;5.2;4.3;;;;;;;22.42;68.93359;944.6273;;;;
2021/08/13 06:16:53;;;;;;;8.1;4.6;;;;;;;22.47;68.71875;944.6199;;;;
2021/08/13 06:19:21;;;;;;;4.7;4.2;;;;;;;22.35;68.84082;944.6072;;;;
2021/08/13 06:21:46;;;;;;;4.7;4.2;;;;;;;22.48;67.37109;944.6486;;;;
2021/08/13 06:24:13;;;;;;;6.6;4.4;;;;;;;22.46;68.88184;944.6508;;;;
2021/08/13 06:26:38;;;;;;;6.1;4;;;;;;;22.5;68.6416;944.6619;;;;
2021/08/13 06:29:04;;;;;;;4.4;4;;;;;;;22.58;69.70898;944.7238;;;;
2021/08/13 06:31:30;;;;;;;6.5;4.5;;;;;;;22.5;67.91309;944.7043;;;;
2021/08/13 06:33:58;;;;;;;6;4.4;;;;;;;22.45;69.58398;944.7459;;;;
2021/08/13 06:36:23;;;;;;;5.5;4.4;;;;;;;22.38;70.39355;944.7639;;;;
2021/08/13 06:38:49;;;;;;;5.4;4.1;;;;;;;22.26;70.58496;944.8141;;;;
2021/08/13 06:41:15;;;;;;;5.9;4.3;;;;;;;21.84;71.4209;944.7341;;;;
2021/08/13 06:43:41;;;;;;;6.1;4.7;;;;;;;21.88;72.6582;944.7997;;;;
2021/08/13 06:46:06;;;;;;;5.7;4.6;;;;;;;21.77;76.3877;944.8669;;;;
2021/08/13 06:48:32;;;;;;;5.9;4.7;;;;;;;21.71;74.64551;944.8414;;;;
2021/08/13 06:50:57;;;;;;;5.5;4.2;;;;;;;21.79;76.2168;944.8777;;;;
2021/08/13 06:53:22;;;;;;;6.7;4.6;;;;;;;21.78;77.16309;944.8342;;;;
2021/08/13 06:55:47;;;;;;;5.5;4.6;;;;;;;21.67;77.56738;944.9314;;;;
2021/08/13 06:58:13;;;;;;;5.9;4.6;;;;;;;21.62;78.48145;944.8886;;;;
2021/08/13 07:00:38;;;;;;;5.9;4.8;;;;;;;21.43;79.38379;944.8686;;;;
2021/08/13 07:03:06;;;;;;;6.2;4.8;;;;;;;21.37;80.5918;944.8484;;;;
2021/08/13 07:05:31;;;;;;;5.9;4.7;;;;;;;22.56;75.49023;944.8878;;;;
2021/08/13 07:07:57;;;;;;;7.5;4.3;;;;;;;24.52;68.8584;944.8513;;;;
2021/08/13 07:10:22;;;;;;;7.6;4.7;;;;;;;25.38;64.83398;944.8488;;;;
2021/08/13 07:12:50;;;;;;;6;4.3;;;;;;;24.88;65.96582;944.8374;;;;
2021/08/13 07:15:15;;;;;;;5.7;4.3;;;;;;;24.11;68.92578;944.8197;;;;
2021/08/13 07:17:42;;;;;;;5.6;4.3;;;;;;;24.09;69.18164;944.892;;;;
2021/08/13 07:20:10;;;;;;;4.8;4.2;;;;;;;24.07;68.67188;944.8431;;;;
2021/08/13 07:22:35;;;;;;;5.5;4.2;;;;;;;25.11;66.375;944.8039;;;;
2021/08/13 07:25:30;;;;;;;6;4.1;;;;;;;26.91;58.82324;944.7913;;;;
2021/08/13 07:27:59;;;;;;;5.7;3.9;;;;;;;28.71;52.91992;944.7672;;;;
2021/08/13 07:30:24;;;;;;;4.9;3.6;;;;;;;30.52;49.72852;944.796;;;;
2021/08/13 07:32:53;;;;;;;3.9;3.5;;;;;;;30.4;48.3291;944.8102;;;;
2021/08/13 07:35:18;;;;;;;6.1;3.9;;;;;;;31.49;46.19531;944.842;;;;
2021/08/13 07:37:46;;;;;;;4.9;4;;;;;;;32.18;43.26953;944.8842;;;;
2021/08/13 07:40:11;;;;;;;4.9;4;;;;;;;31.45;45.68848;944.8478;;;;
2021/08/13 07:42:40;;;;;;;4.6;3.5;;;;;;;31.54;45.18262;944.8125;;;;
2021/08/13 07:45:03;;;;;;;3.9;3.5;;;;;;;33.35;41.90137;944.7698;;;;
2021/08/13 07:47:32;;;;;;;3.6;3.3;;;;;;;35.06;40.0918;944.818;;;;
2021/08/13 07:49:57;;;;;;;3.7;3.4;;;;;;;36.2;35.95898;944.7978;;;;
2021/08/13 07:52:22;;;;;;;4.3;3.1;;;;;;;36.34;35.48633;944.7873;;;;
2021/08/13 07:54:48;;;;;;;3.9;3.5;;;;;;;36.61;35.78516;944.7216;;;;
2021/08/13 07:57:14;;;;;;;3.3;2.8;;;;;;;37.93;31.67578;944.7682;;;;
2021/08/13 08:00:14;;;;;;;3.8;3.2;;;;;;;37.19;33.07813;944.7781;;;;
2021/08/13 08:02:42;;;;;;;3.3;3;;;;;;;39.08;31.14551;944.7759;;;;
2021/08/13 08:05:07;;;;;;;3.3;3;;;;;;;39.28;30.4043;944.7672;;;;
2021/08/13 08:07:32;;;;;;;3.2;2.9;;;;;;;38.61;31.12598;944.7725;;;;
2021/08/13 08:09:57;;;;;;;3.7;3.1;;;;;;;39.62;30.53613;944.8223;;;;
2021/08/13 08:12:22;;;;;;;4.2;3.2;;;;;;;40;29.48926;944.8005;;;;
2021/08/13 08:14:52;;;;;;;3.6;3.2;;;;;;;38.72;32.02148;944.7634;;;;
2021/08/13 08:17:17;;;;;;;4.3;3.3;;;;;;;37.88;32.8125;944.7731;;;;
2021/08/13 08:19:44;;;;;;;3.5;3.2;;;;;;;39.28;30.42969;944.7972;;;;
2021/08/13 08:22:09;;;;;;;3.7;3.3;;;;;;;39.94;29.3623;944.7537;;;;
2021/08/13 08:25:18;;;;;;;3.5;3.2;;;;;;;40.13;27.81348;944.7612;;;;
2021/08/13 08:27:45;;;;;;;3.5;3.2;;;;;;;39.82;29.83008;944.7814;;;;
2021/08/13 08:30:10;;;;;;;3.1;2.9;;;;;;;39.57;27.38965;944.7543;;;;
2021/08/13 08:32:43;;;;;;;3.3;3;;;;;;;39.9;27.53125;944.771;;;;
2021/08/13 08:35:14;;;;;;;3.3;3;;;;;;;40.23;27.20996;944.7457;;;;
2021/08/13 08:41:03;;;;;;;3;2.7;;;;;;;40.6;28.19629;944.7495;;;;
2021/08/13 08:43:28;;;;;;;4.2;3.4;;;;;;;39.96;27.71777;944.6892;;;;
2021/08/13 08:45:53;;;;;;;4.1;3.2;;;;;;;39.53;27.48438;944.6653;;;;
2021/08/13 08:48:18;;;;;;;3.8;3.5;;;;;;;39.22;28.89063;944.7043;;;;
2021/08/13 08:50:43;;;;;;;3.6;3.2;;;;;;;38.87;29.25781;944.7068;;;;
2021/08/13 08:53:09;;;;;;;2.9;2.7;;;;;;;39.86;29.19922;944.7317;;;;
2021/08/13 08:55:38;;;;;;;3.6;3.1;;;;;;;39.09;28.77344;944.6606;;;;
2021/08/13 08:58:03;;;;;;;3.3;2.8;;;;;;;39.48;30.72168;944.6909;;;;
2021/08/13 09:00:30;;;;;;;3.2;2.9;;;;;;;38.94;29.85938;944.702;;;;
2021/08/13 09:02:55;;;;;;;3.7;3.3;;;;;;;38.45;30.02148;944.6824;;;;
2021/08/13 09:05:22;;;;;;;3.1;2.9;;;;;;;36.49;31.93848;944.6238;;;;
2021/08/13 09:07:47;;;;;;;6.2;3.3;;;;;;;37.39;32.59668;944.5995;;;;
2021/08/13 09:10:19;;;;;;;3.3;3;;;;;;;38.38;31.71777;944.5648;;;;
2021/08/13 09:12:51;;;;;;;4;3.3;;;;;;;38.24;30.11719;944.5979;;;;
2021/08/13 09:15:28;;;;;;;3;2.8;;;;;;;39.16;28.8877;944.5784;;;;
2021/08/13 09:17:53;;;;;;;3.1;2.8;;;;;;;37.84;31.37793;944.5153;;;;
2021/08/13 09:20:22;;;;;;;3.2;2.9;;;;;;;36.67;32.55664;944.5575;;;;
2021/08/13 09:22:51;;;;;;;3.6;2.9;;;;;;;35.17;36.92773;944.5536;;;;
2021/08/13 09:25:18;;;;;;;4.4;3.5;;;;;;;34.89;37.19434;944.5352;;;;
2021/08/13 09:27:46;;;;;;;3.9;3;;;;;;;34.35;38.8125;944.4885;;;;
2021/08/13 09:30:12;;;;;;;4.9;4.4;;;;;;;34.49;40.57227;944.4692;;;;
2021/08/13 09:32:41;;;;;;;4;3.3;;;;;;;34.45;35.90625;944.4636;;;;
2021/08/13 09:35:12;;;;;;;4.4;3.1;;;;;;;32.18;38.35352;944.4216;;;;
2021/08/13 09:37:37;;;;;;;5;3.5;;;;;;;33.87;38.38672;944.3542;;;;
2021/08/13 09:40:08;;;;;;;3.3;2.7;;;;;;;34.14;36.78516;944.4205;;;;
2021/08/13 09:42:32;;;;;;;4.2;3;;;;;;;34.59;35.54297;944.446;;;;
2021/08/13 09:44:58;;;;;;;3.5;3.2;;;;;;;34.65;35.33105;944.3679;;;;
2021/08/13 09:47:23;;;;;;;3.5;3.2;;;;;;;32.62;45.21875;944.3067;;;;
2021/08/13 09:49:48;;;;;;;5;3.4;;;;;;;32.78;44.93359;944.2786;;;;
2021/08/13 09:52:16;;;;;;;3.9;3.6;;;;;;;33.09;43.08008;944.2833;;;;
2021/08/13 09:54:41;;;;;;;3.9;3.3;;;;;;;33.86;38.92871;944.2852;;;;
2021/08/13 09:57:07;;;;;;;4.2;3.5;;;;;;;34.1;40.3457;944.3645;;;;
2021/08/13 09:59:31;;;;;;;3.5;3.2;;;;;;;33.58;39.92676;944.3727;;;;
2021/08/13 10:02:00;;;;;;;3.8;3.1;;;;;;;33.48;40.07422;944.3237;;;;
2021/08/13 10:04:25;;;;;;;3.5;3.2;;;;;;;33.05;42.97852;944.3401;;;;
2021/08/13 10:06:54;;;;;;;4.9;3.6;;;;;;;33.61;41.49219;944.3052;;;;
2021/08/13 10:09:19;;;;;;;4.3;3.4;;;;;;;33.62;41.91406;944.2913;;;;
2021/08/13 10:12:17;;;;;;;4.6;3.7;;;;;;;34.03;37.91992;944.2858;;;;
2021/08/13 10:14:42;;;;;;;5.2;3.3;;;;;;;34.46;38.78613;944.3719;;;;
2021/08/13 10:17:51;;;;;;;4.1;3.4;;;;;;;34.45;34.0625;944.412;;;;
2021/08/13 10:20:16;;;;;;;3.8;3.1;;;;;;;34.12;38.5166;944.4011;;;;
2021/08/13 10:22:42;;;;;;;3.9;3.2;;;;;;;34.14;39.75879;944.4373;;;;
2021/08/13 10:25:13;;;;;;;3.3;3;;;;;;;33.82;36.30176;944.3717;;;;
2021/08/13 10:27:42;;;;;;;3.3;3;;;;;;;33.63;39.19727;944.3667;;;;
2021/08/13 10:30:07;;;;;;;3.9;3.4;;;;;;;33.98;39.94922;944.3292;;;;
2021/08/13 10:32:32;;;;;;;3.5;2.9;;;;;;;33.5;38.99414;944.319;;;;
2021/08/13 10:34:59;;;;;;;3.2;2.9;;;;;;;33.47;37.27148;944.303;;;;
2021/08/13 10:37:25;;;;;;;7.9;3.2;;;;;;;33.47;39.01367;944.2482;;;;
2021/08/13 10:39:50;;;;;;;3.3;3;;;;;;;33.5;39.43848;944.2;;;;
2021/08/13 10:42:15;;;;;;;3.8;2.8;;;;;;;34.23;39.00781;944.1898;;;;
2021/08/13 10:45:02;;;;;;;3;2.7;;;;;;;35.03;34.60059;944.1577;;;;
2021/08/13 10:47:28;;;;;;;4.6;2.8;;;;;;;35.22;36.37695;944.1843;;;;
2021/08/13 10:49:53;;;;;;;3.8;2.8;;;;;;;35.72;36.00586;944.204;;;;
2021/08/13 10:52:18;;;;;;;3.4;3.1;;;;;;;36.09;34.06348;944.1345;;;;
2021/08/13 10:54:43;;;;;;;2.7;2.5;;;;;;;36.75;34.97266;944.1592;;;;
2021/08/13 10:57:10;;;;;;;3.9;3;;;;;;;37.02;33.4668;944.1587;;;;
2021/08/13 10:59:35;;;;;;;4.6;2.7;;;;;;;36.69;34.09668;944.097;;;;
2021/08/13 11:02:03;;;;;;;3.7;2.8;;;;;;;35.89;34.35156;944.0846;;;;
2021/08/13 11:04:28;;;;;;;3;2.7;;;;;;;35.25;37.50098;944.0644;;;;
2021/08/13 11:06:56;;;;;;;4.7;2.9;;;;;;;36.35;34.05859;944.0783;;;;
2021/08/13 11:09:21;;;;;;;3.2;2.7;;;;;;;36.74;33.03418;944.0787;;;;
2021/08/13 11:11:50;;;;;;;3.1;2.7;;;;;;;37.41;32.07617;944.0481;;;;
2021/08/13 11:14:15;;;;;;;3;2.7;;;;;;;37.05;34.1709;944.0135;;;;
2021/08/13 11:16:44;;;;;;;3.8;2.7;;;;;;;36.25;34.82617;943.9847;;;;
2021/08/13 11:19:14;;;;;;;4.6;3.1;;;;;;;36.28;34.01758;943.98;;;;
2021/08/13 11:21:39;;;;;;;3.1;2.7;;;;;;;36.09;33.89453;943.9819;;;;
2021/08/13 11:24:04;;;;;;;3;2.3;;;;;;;37.39;31.03125;943.9906;;;;
2021/08/13 11:26:29;;;;;;;3.5;2.7;;;;;;;37.87;31.17285;943.9789;;;;
2021/08/13 11:28:56;;;;;;;3.5;2.8;;;;;;;38.06;30.28809;943.9525;;;;
2021/08/13 11:31:21;;;;;;;3.3;2.8;;;;;;;38.21;30.37012;943.9295;;;;
2021/08/13 11:33:46;;;;;;;3.4;2.9;;;;;;;38.88;30.09863;943.9185;;;;
2021/08/13 11:36:11;;;;;;;4.5;2.5;;;;;;;39.29;30.4668;943.9139;;;;
2021/08/13 11:38:38;;;;;;;2.9;2.6;;;;;;;39.42;29.37891;943.9263;;;;
2021/08/13 11:41:05;;;;;;;3.2;2.8;;;;;;;38.93;32.07324;943.9127;;;;
2021/08/13 11:43:31;;;;;;;4.1;2.8;;;;;;;38.91;31.18262;943.8407;;;;
2021/08/13 11:45:56;;;;;;;3.2;2.8;;;;;;;38.38;31.81543;943.8452;;;;
2021/08/13 11:48:25;;;;;;;5.5;2.9;;;;;;;37.98;32.30957;943.7338;;;;
2021/08/13 11:50:49;;;;;;;3.9;3;;;;;;;38.65;31.25098;943.7441;;;;
2021/08/13 11:53:17;;;;;;;6.1;2.9;;;;;;;39.16;29.38672;943.7073;;;;
2021/08/13 11:55:45;;;;;;;4.6;2.6;;;;;;;39.47;29.38086;943.7009;;;;
2021/08/13 11:58:23;;;;;;;3.4;2.6;;;;;;;39.48;29.35742;943.7328;;;;
2021/08/13 12:00:46;;;;;;;5.1;3;;;;;;;39.23;28.77051;943.7205;;;;
2021/08/13 12:03:11;;;;;;;5.1;3.3;;;;;;;38.64;29.94922;943.7132;;;;
2021/08/13 12:05:40;;;;;;;4.2;2.6;;;;;;;39;30.45898;943.6426;;;;
2021/08/13 12:08:06;;;;;;;4.2;2.8;;;;;;;39.28;29.90527;943.5948;;;;
2021/08/13 12:10:31;;;;;;;3.2;2.7;;;;;;;39.31;29.80957;943.6302;;;;
2021/08/13 12:12:56;;;;;;;13.5;3.4;;;;;;;37.95;33.12109;943.6152;;;;
2021/08/13 12:15:30;;;;;;;2.6;2.4;;;;;;;37.72;32.52246;943.5744;;;;
2021/08/13 12:17:56;;;;;;;4;2.7;;;;;;;37.17;32.44727;943.5531;;;;
2021/08/13 12:20:21;;;;;;;3;2.7;;;;;;;37.01;33.47852;943.5389;;;;
2021/08/13 12:22:49;;;;;;;3.1;2.8;;;;;;;36.76;33.61719;943.5873;;;;
2021/08/13 12:25:14;;;;;;;3.7;2.8;;;;;;;36.7;34.2793;943.5783;;;;
2021/08/13 12:27:39;;;;;;;4.2;2.7;;;;;;;36.55;33.86816;943.5427;;;;
2021/08/13 12:30:04;;;;;;;5.7;3.1;;;;;;;36.21;34.36328;943.5776;;;;
2021/08/13 12:32:31;;;;;;;3.6;2.9;;;;;;;35.57;35.74023;943.616;;;;
2021/08/13 12:34:56;;;;;;;4.4;2.9;;;;;;;35.2;37.42578;943.6267;;;;
2021/08/13 12:37:21;;;;;;;4.2;2.8;;;;;;;34.77;38.9209;943.6545;;;;
2021/08/13 12:39:49;;;;;;;3.2;2.9;;;;;;;34.45;39.56934;943.6281;;;;
2021/08/13 12:42:15;;;;;;;4.9;2.6;;;;;;;34.66;38.94727;943.6492;;;;
2021/08/13 12:44:40;;;;;;;3.4;2.5;;;;;;;34.74;37.62793;943.7053;;;;
2021/08/13 12:47:05;;;;;;;3.4;2.7;;;;;;;34.88;37.60352;943.7167;;;;
2021/08/13 12:49:30;;;;;;;3.3;3;;;;;;;34.9;38.87207;943.7569;;;;
2021/08/13 12:51:55;;;;;;;4.1;2.7;;;;;;;34.06;41.11133;943.7274;;;;
2021/08/13 12:54:20;;;;;;;3.3;2.7;;;;;;;33.14;40.17676;943.5988;;;;
2021/08/13 12:56:46;;;;;;;3.2;2.6;;;;;;;33.53;41.14844;943.7403;;;;
2021/08/13 12:59:12;;;;;;;3.5;3;;;;;;;33.45;41.18848;943.7508;;;;
2021/08/13 13:01:37;;;;;;;2.7;2.5;;;;;;;33.56;42.08887;943.7523;;;;
2021/08/13 13:04:02;;;;;;;3.5;2.5;;;;;;;32.86;43.40527;943.735;;;;
2021/08/13 13:06:28;;;;;;;4.8;3.3;;;;;;;32.41;43.83008;943.7623;;;;
2021/08/13 13:08:55;;;;;;;5.1;3.1;;;;;;;32.92;42.59473;943.7947;;;;
2021/08/13 13:11:20;;;;;;;4.6;2.9;;;;;;;33.29;40.27344;943.7809;;;;
2021/08/13 13:13:46;;;;;;;3.1;2.4;;;;;;;33.26;41.07617;943.7688;;;;
2021/08/13 13:16:12;;;;;;;4.7;2.7;;;;;;;32.88;42.44629;943.7458;;;;
2021/08/13 13:18:40;;;;;;;3;2.7;;;;;;;33;43.86328;943.6669;;;;
2021/08/13 13:21:05;;;;;;;3.4;2.6;;;;;;;33.38;41.4834;943.6789;;;;
2021/08/13 13:23:30;;;;;;;4.5;3;;;;;;;33.24;41.1709;943.7059;;;;
2021/08/13 13:25:57;;;;;;;3.9;3.1;;;;;;;34.01;40.33691;943.6947;;;;
2021/08/13 13:28:22;;;;;;;4.4;2.8;;;;;;;34.11;38.70898;943.6511;;;;
2021/08/13 13:30:50;;;;;;;3.7;2.6;;;;;;;34.02;41.68652;943.6494;;;;
2021/08/13 13:33:16;;;;;;;5.5;3.5;;;;;;;34.41;39.97559;943.5978;;;;
2021/08/13 13:35:41;;;;;;;3.9;2.7;;;;;;;34.26;41.38379;943.6222;;;;
2021/08/13 13:38:06;;;;;;;3.3;3;;;;;;;34.54;39.37207;943.6049;;;;
2021/08/13 13:40:32;;;;;;;3.8;2.7;;;;;;;34.49;39.06641;943.5388;;;;
2021/08/13 13:42:57;;;;;;;4.1;3.1;;;;;;;34.42;39.0957;943.5659;;;;
2021/08/13 13:45:25;;;;;;;3.9;3;;;;;;;34.02;40.12109;943.5264;;;;
2021/08/13 13:47:49;;;;;;;3;2.6;;;;;;;33.45;41.51367;943.5251;;;;
2021/08/13 13:50:15;;;;;;;3.2;2.8;;;;;;;33.26;41.00391;943.4517;;;;
2021/08/13 13:52:40;;;;;;;2.7;2.5;;;;;;;33.59;41.20117;943.5023;;;;
2021/08/13 13:55:10;;;;;;;3.8;3.1;;;;;;;33.61;39.71289;943.515;;;;
2021/08/13 13:57:37;;;;;;;5.1;3;;;;;;;33.93;39.82422;943.4829;;;;
2021/08/13 14:00:02;;;;;;;3.5;2.8;;;;;;;34.1;39.89941;943.4697;;;;
2021/08/13 14:02:28;;;;;;;3.5;3.1;;;;;;;34.14;39.65039;943.3918;;;;
2021/08/13 14:04:53;;;;;;;4.2;2.9;;;;;;;33.94;39.56055;943.3848;;;;
2021/08/13 14:07:21;;;;;;;3.7;3.2;;;;;;;33.88;39.82031;943.3894;;;;
2021/08/13 14:09:46;;;;;;;4.3;3.1;;;;;;;33.91;39.05176;943.4266;;;;
2021/08/13 14:12:12;;;;;;;3.2;2.5;;;;;;;33.81;39.24902;943.443;;;;
2021/08/13 14:14:37;;;;;;;3.2;2.9;;;;;;;33.51;39.90723;943.4034;;;;
2021/08/13 14:17:05;;;;;;;3.2;2.8;;;;;;;33.22;39.60645;943.4009;;;;
2021/08/13 14:19:32;;;;;;;3.8;2.8;;;;;;;33.29;39.66016;943.4047;;;;
2021/08/13 14:21:58;;;;;;;4.4;3.3;;;;;;;33.28;40.47656;943.412;;;;
2021/08/13 14:24:26;;;;;;;3.8;2.9;;;;;;;33.4;40.4043;943.3834;;;;
2021/08/13 14:26:51;;;;;;;3;2.5;;;;;;;33.33;39.50781;943.3433;;;;
2021/08/13 14:29:20;;;;;;;4.4;3.1;;;;;;;33.11;39.8125;943.3445;;;;